createdAt,value
2023-12-11T00:00:46.616Z,18.20
2023-12-11T00:03:14.431Z,15.85
2023-12-11T00:05:42.827Z,17.40
2023-12-11T00:08:10.346Z,18.00
2023-12-11T00:10:38.767Z,15.32
2023-12-11T00:13:06.094Z,16.17
2023-12-11T00:15:33.471Z,16.42
2023-12-11T00:18:01.639Z,15.88
2023-12-11T00:20:29.145Z,16.23
2023-12-11T00:22:56.398Z,16.98
2023-12-11T00:25:23.961Z,15.63
2023-12-11T00:27:52.385Z,15.43
2023-12-11T00:30:19.660Z,14.27
2023-12-11T00:32:47.606Z,15.02
2023-12-11T00:35:15.957Z,15.35
2023-12-11T00:37:43.190Z,16.35
2023-12-11T00:40:10.935Z,14.35
2023-12-11T00:42:38.246Z,14.55
2023-12-11T00:45:06.859Z,13.82
2023-12-11T00:47:34.812Z,14.85
2023-12-11T00:50:05.412Z,16.45
2023-12-11T00:52:34.685Z,14.87
2023-12-11T00:55:02.101Z,15.18
2023-12-11T00:57:29.556Z,16.60
2023-12-11T00:59:57.274Z,14.68
2023-12-11T01:02:24.618Z,15.02
2023-12-11T01:04:51.975Z,14.73
2023-12-11T01:07:19.622Z,16.30
2023-12-11T01:09:46.909Z,16.67
2023-12-11T01:12:14.112Z,17.50
2023-12-11T01:14:41.710Z,17.33
2023-12-11T01:17:36.693Z,18.42
2023-12-11T01:19:56.847Z,16.60
2023-12-11T01:22:24.177Z,17.95
2023-12-11T01:24:51.472Z,15.77
2023-12-11T01:27:19.278Z,17.33
2023-12-11T01:29:46.613Z,17.67
2023-12-11T01:32:13.892Z,17.17
2023-12-11T01:34:41.501Z,17.65
2023-12-11T01:37:09.345Z,19.90
2023-12-11T01:39:36.613Z,16.65
2023-12-11T01:42:04.567Z,20.10
2023-12-11T01:44:31.921Z,18.87
2023-12-11T01:46:59.311Z,16.85
2023-12-11T01:49:26.999Z,16.70
2023-12-11T01:51:54.308Z,14.85
2023-12-11T01:54:22.786Z,12.95
2023-12-11T01:56:50.614Z,13.48
2023-12-11T01:59:19.090Z,12.60
2023-12-11T02:01:46.513Z,12.45
2023-12-11T02:04:17.394Z,13.65
2023-12-11T02:06:45.097Z,12.37
2023-12-11T02:09:12.625Z,11.35
2023-12-11T02:11:41.286Z,12.20
2023-12-11T02:14:09.337Z,12.32
2023-12-11T02:16:36.784Z,13.52
2023-12-11T02:19:04.504Z,12.88
2023-12-11T02:21:31.895Z,14.23
2023-12-11T02:24:08.777Z,13.32
2023-12-11T02:26:36.382Z,12.27
2023-12-11T02:29:03.925Z,12.70
2023-12-11T02:31:31.214Z,12.32
2023-12-11T02:33:58.950Z,14.45
2023-12-11T02:36:39.425Z,13.10
2023-12-11T02:39:07.022Z,14.45
2023-12-11T02:41:34.395Z,15.10
2023-12-11T02:44:02.778Z,13.43
2023-12-11T02:46:30.892Z,14.68
2023-12-11T02:48:58.285Z,13.38
2023-12-11T02:51:26.162Z,14.10
2023-12-11T02:53:54.250Z,13.60
2023-12-11T02:56:22.097Z,15.93
2023-12-11T02:58:49.359Z,15.55
2023-12-11T03:01:17.689Z,15.95
2023-12-11T03:03:45.630Z,16.00
2023-12-11T03:06:20.544Z,15.95
2023-12-11T03:08:48.180Z,16.33
2023-12-11T03:11:15.937Z,16.05
2023-12-11T03:13:43.268Z,14.52
2023-12-11T03:16:14.798Z,15.63
2023-12-11T03:18:42.833Z,16.45
2023-12-11T03:21:10.579Z,18.42
2023-12-11T03:23:39.778Z,16.87
2023-12-11T03:26:08.544Z,17.12
2023-12-11T03:28:36.161Z,16.67
2023-12-11T03:31:04.130Z,15.70
2023-12-11T03:33:31.580Z,19.37
2023-12-11T03:35:59.288Z,16.62
2023-12-11T03:38:26.529Z,16.27
2023-12-11T03:40:56.335Z,18.62
2023-12-11T03:43:24.580Z,20.02
2023-12-11T03:45:56.075Z,21.45
2023-12-11T03:48:23.926Z,20.83
2023-12-11T03:50:51.847Z,20.58
2023-12-11T03:53:19.077Z,19.17
2023-12-11T03:55:46.681Z,20.17
2023-12-11T03:58:14.958Z,18.48
2023-12-11T04:00:42.891Z,20.33
2023-12-11T04:03:12.602Z,21.00
2023-12-11T04:05:40.591Z,20.95
2023-12-11T04:08:08.068Z,22.48
2023-12-11T04:10:36.145Z,20.10
2023-12-11T04:13:04.366Z,21.55
2023-12-11T04:15:31.770Z,19.48
2023-12-11T04:18:01.064Z,21.45
2023-12-11T04:20:28.349Z,19.17
2023-12-11T04:22:55.623Z,19.35
2023-12-11T04:25:23.184Z,20.12
2023-12-11T04:27:50.417Z,19.48
2023-12-11T04:30:17.647Z,21.02
2023-12-11T04:32:45.900Z,21.15
2023-12-11T04:35:13.880Z,20.23
2023-12-11T04:37:43.242Z,20.27
2023-12-11T04:40:11.913Z,22.02
2023-12-11T04:42:52.590Z,19.08
2023-12-11T04:45:20.159Z,18.80
2023-12-11T04:47:50.425Z,20.00
2023-12-11T04:50:18.025Z,20.37
2023-12-11T04:52:48.956Z,20.30
2023-12-11T04:55:17.165Z,18.30
2023-12-11T04:57:44.488Z,18.85
2023-12-11T05:00:16.451Z,20.58
2023-12-11T05:02:44.878Z,18.20
2023-12-11T05:05:12.668Z,19.45
2023-12-11T05:07:40.469Z,19.02
2023-12-11T05:10:08.581Z,19.75
2023-12-11T05:12:36.235Z,19.40
2023-12-11T05:15:05.050Z,17.50
2023-12-11T05:17:46.966Z,20.75
2023-12-11T05:20:17.597Z,19.10
2023-12-11T05:22:44.927Z,18.90
2023-12-11T05:25:13.225Z,19.05
2023-12-11T05:27:40.919Z,21.62
2023-12-11T05:30:09.195Z,18.55
2023-12-11T05:32:37.029Z,18.42
2023-12-11T05:35:05.156Z,18.70
2023-12-11T05:37:36.767Z,18.70
2023-12-11T05:40:21.458Z,18.83
2023-12-11T05:42:52.710Z,20.20
2023-12-11T05:45:20.082Z,20.85
2023-12-11T05:47:47.791Z,20.17
2023-12-11T05:50:16.225Z,20.52
2023-12-11T05:52:45.488Z,18.08
2023-12-11T05:55:13.765Z,17.95
2023-12-11T05:57:44.986Z,18.90
2023-12-11T06:02:42.392Z,18.37
2023-12-11T06:05:10.798Z,18.80
2023-12-11T06:07:38.382Z,17.15
2023-12-11T06:10:07.136Z,19.67
2023-12-11T06:12:35.334Z,19.17
2023-12-11T06:15:02.977Z,19.62
2023-12-11T06:17:30.939Z,16.65
2023-12-11T06:20:01.055Z,17.23
2023-12-11T06:22:28.753Z,18.10
2023-12-11T06:25:08.366Z,20.23
2023-12-11T06:27:35.768Z,17.85
2023-12-11T06:30:04.098Z,17.62
2023-12-11T06:32:31.475Z,20.40
2023-12-11T06:34:59.298Z,17.80
2023-12-11T06:37:27.168Z,19.30
2023-12-11T06:39:55.932Z,20.60
2023-12-11T06:42:23.743Z,18.42
2023-12-11T06:44:51.576Z,19.08
2023-12-11T06:47:19.384Z,22.00
2023-12-11T06:49:48.304Z,20.50
2023-12-11T06:52:17.210Z,19.87
2023-12-11T06:54:44.623Z,17.95
2023-12-11T06:57:12.744Z,19.25
2023-12-11T06:59:40.379Z,19.55
2023-12-11T07:02:08.436Z,19.27
2023-12-11T07:04:35.986Z,20.70
2023-12-11T07:07:04.914Z,18.00
2023-12-11T07:09:33.727Z,18.17
2023-12-11T07:12:05.483Z,19.08
2023-12-11T07:14:33.184Z,16.77
2023-12-11T07:17:00.769Z,16.65
2023-12-11T07:19:28.222Z,18.90
2023-12-11T07:21:58.126Z,15.60
2023-12-11T07:24:25.484Z,16.42
2023-12-11T07:26:53.246Z,16.90
2023-12-11T07:29:20.824Z,15.63
2023-12-11T07:31:49.077Z,14.68
2023-12-11T07:34:16.481Z,15.40
2023-12-11T07:36:47.548Z,16.25
2023-12-11T07:39:15.666Z,15.90
2023-12-11T07:41:43.925Z,14.75
2023-12-11T07:44:11.519Z,15.40
2023-12-11T07:46:42.272Z,14.18
2023-12-11T07:49:13.905Z,15.05
2023-12-11T07:51:41.660Z,16.20
2023-12-11T07:54:10.903Z,16.83
2023-12-11T07:56:38.490Z,17.77
2023-12-11T07:59:07.901Z,16.42
2023-12-11T08:01:36.681Z,17.12
2023-12-11T08:04:05.096Z,18.90
2023-12-11T08:06:32.698Z,17.37
2023-12-11T08:09:04.322Z,18.33
2023-12-11T08:11:32.761Z,15.55
2023-12-11T08:14:00.213Z,17.92
2023-12-11T08:16:28.662Z,17.83
2023-12-11T08:18:56.541Z,17.15
2023-12-11T08:21:24.371Z,16.58
2023-12-11T08:24:08.910Z,14.10
2023-12-11T08:26:38.990Z,13.80
2023-12-11T08:29:07.202Z,15.25
2023-12-11T08:31:37.281Z,15.90
2023-12-11T08:34:05.251Z,16.30
2023-12-11T08:36:33.214Z,15.73
2023-12-11T08:39:01.245Z,17.42
2023-12-11T08:41:28.835Z,17.65
2023-12-11T08:43:57.225Z,16.73
2023-12-11T08:46:25.760Z,14.80
2023-12-11T08:48:53.618Z,15.30
2023-12-11T08:51:21.166Z,17.98
2023-12-11T08:53:49.572Z,15.55
2023-12-11T08:56:28.180Z,18.20
2023-12-11T08:59:04.874Z,16.85
2023-12-11T09:01:36.025Z,16.17
2023-12-11T09:04:04.682Z,14.80
2023-12-11T09:06:32.510Z,15.77
2023-12-11T09:09:00.278Z,15.02
2023-12-11T09:11:27.625Z,15.95
2023-12-11T09:13:55.891Z,15.52
2023-12-11T09:16:25.188Z,14.85
2023-12-11T09:22:36.154Z,15.38
2023-12-11T09:32:11.405Z,14.55
2023-12-11T09:34:43.982Z,14.27
2023-12-11T09:37:13.776Z,16.05
2023-12-11T09:39:41.960Z,15.73
2023-12-11T09:49:05.866Z,14.63
2023-12-11T09:54:52.179Z,14.93
2023-12-11T09:57:20.687Z,14.65
2023-12-11T09:59:48.756Z,14.65
2023-12-11T10:05:47.995Z,15.00
2023-12-11T10:08:19.035Z,16.92
2023-12-11T10:10:47.615Z,14.75
2023-12-11T10:13:25.778Z,16.10
2023-12-11T10:15:54.137Z,14.57
2023-12-11T10:18:27.531Z,14.80
2023-12-11T10:20:58.694Z,13.65
2023-12-11T10:23:27.671Z,14.65
2023-12-11T10:26:09.679Z,17.80
2023-12-11T10:28:37.759Z,15.52
2023-12-11T10:32:02.688Z,14.87
2023-12-11T10:38:22.101Z,14.48
2023-12-11T10:41:01.993Z,16.92
2023-12-11T10:44:02.018Z,15.30
2023-12-11T10:50:37.149Z,18.98
2023-12-11T10:53:20.601Z,15.35
2023-12-11T10:55:52.904Z,15.35
2023-12-11T10:58:39.743Z,17.87
2023-12-11T11:01:13.702Z,15.55
2023-12-11T11:03:42.398Z,15.90
2023-12-11T11:06:13.762Z,15.32
2023-12-11T11:08:56.477Z,16.15
2023-12-11T11:11:30.580Z,17.77
2023-12-11T11:14:25.335Z,16.23
2023-12-11T11:16:54.814Z,16.80
2023-12-11T11:19:23.115Z,16.87
2023-12-11T11:22:13.474Z,15.68
2023-12-11T11:24:48.034Z,18.17
2023-12-11T11:27:44.999Z,18.70
2023-12-11T11:30:42.786Z,18.08
2023-12-11T11:33:11.869Z,20.17
2023-12-11T11:35:46.834Z,17.83
2023-12-11T11:38:22.323Z,16.45
2023-12-11T11:40:52.915Z,16.70
2023-12-11T11:46:48.749Z,18.33
2023-12-11T11:52:43.486Z,16.90
2023-12-11T11:55:22.338Z,17.12
2023-12-11T11:57:50.119Z,17.42
2023-12-11T12:00:25.309Z,15.65
2023-12-11T12:03:07.951Z,16.10
2023-12-11T12:05:39.991Z,15.68
2023-12-11T12:08:09.358Z,15.40
2023-12-11T12:10:37.322Z,16.58
2023-12-11T12:13:06.623Z,16.50
2023-12-11T12:15:46.344Z,16.65
2023-12-11T12:18:17.703Z,15.30
2023-12-11T12:23:31.741Z,15.52
2023-12-11T12:26:00.807Z,16.55
2023-12-11T12:28:31.022Z,15.48
2023-12-11T12:30:59.043Z,15.98
2023-12-11T12:33:28.571Z,14.87
2023-12-11T12:35:56.647Z,15.18
2023-12-11T12:38:24.945Z,14.63
2023-12-11T12:40:55.148Z,14.90
2023-12-11T12:43:25.613Z,15.10
2023-12-11T12:46:00.878Z,15.40
2023-12-11T12:48:31.743Z,15.18
2023-12-11T12:51:06.648Z,14.40
2023-12-11T12:53:34.171Z,16.52
2023-12-11T12:56:02.204Z,15.80
2023-12-11T12:58:30.564Z,19.37
2023-12-11T13:01:01.102Z,16.17
2023-12-11T13:03:29.091Z,15.35
2023-12-11T13:05:59.483Z,17.90
2023-12-11T13:08:30.299Z,15.63
2023-12-11T13:10:58.397Z,17.27
2023-12-11T13:13:28.248Z,17.95
2023-12-11T13:15:57.941Z,18.33
2023-12-11T13:18:32.156Z,18.83
2023-12-11T13:21:00.554Z,17.85
2023-12-11T13:23:29.891Z,17.37
2023-12-11T13:25:58.327Z,17.27
2023-12-11T13:28:25.776Z,17.37
2023-12-11T13:30:54.383Z,17.37
2023-12-11T13:36:31.496Z,17.48
2023-12-11T13:39:00.203Z,18.23
2023-12-11T13:45:13.059Z,16.05
2023-12-11T13:47:41.053Z,16.35
2023-12-11T13:50:10.887Z,17.75
2023-12-11T13:52:40.885Z,21.80
2023-12-11T13:55:08.855Z,18.87
2023-12-11T13:57:37.114Z,21.98
2023-12-11T14:00:05.694Z,21.70
2023-12-11T14:02:59.437Z,21.02
2023-12-11T14:05:21.832Z,18.75
2023-12-11T14:07:50.624Z,20.58
2023-12-11T14:10:18.449Z,18.75
2023-12-11T14:12:46.553Z,20.33
2023-12-11T14:18:35.430Z,19.00
2023-12-11T14:21:04.947Z,20.67
2023-12-11T14:23:33.909Z,18.80
2023-12-11T14:26:01.816Z,20.05
2023-12-11T14:28:32.271Z,21.00
2023-12-11T14:31:00.668Z,20.42
2023-12-11T14:33:32.423Z,22.25
2023-12-11T14:36:14.931Z,21.73
2023-12-11T14:38:59.910Z,21.62
2023-12-11T14:45:24.266Z,21.58
2023-12-11T14:51:40.763Z,23.27
2023-12-11T14:54:09.376Z,20.58
2023-12-11T14:56:40.381Z,20.42
2023-12-11T14:59:08.547Z,23.73
2023-12-11T15:01:38.204Z,21.67
2023-12-11T15:04:08.402Z,21.08
2023-12-11T15:06:40.784Z,21.17
2023-12-11T15:09:08.697Z,23.90
2023-12-11T15:11:36.562Z,24.92
2023-12-11T15:14:14.221Z,27.02
2023-12-11T15:16:46.087Z,24.52
2023-12-11T15:19:14.610Z,25.62
2023-12-11T15:25:13.505Z,25.77
2023-12-11T15:27:45.717Z,25.48
2023-12-11T15:30:20.285Z,28.80
2023-12-11T15:32:55.395Z,27.40
2023-12-11T15:35:25.199Z,28.85
2023-12-11T15:37:54.191Z,33.45
2023-12-11T15:40:28.521Z,31.65
2023-12-11T15:43:02.478Z,33.70
2023-12-11T15:45:29.926Z,31.98
2023-12-11T15:48:03.785Z,34.28
2023-12-11T15:50:34.322Z,32.67
2023-12-11T15:53:02.123Z,32.78
2023-12-11T15:55:29.482Z,32.15
2023-12-11T15:57:57.924Z,32.28
2023-12-11T16:00:26.005Z,33.00
2023-12-11T16:02:56.304Z,33.78
2023-12-11T16:05:24.027Z,33.50
2023-12-11T16:07:51.378Z,31.27
2023-12-11T16:10:19.170Z,30.42
2023-12-11T16:16:32.792Z,29.90
2023-12-11T16:19:00.974Z,32.45
2023-12-11T16:21:28.457Z,34.10
2023-12-11T16:23:58.640Z,32.47
2023-12-11T16:26:28.601Z,30.90
2023-12-11T16:28:58.179Z,31.80
2023-12-11T16:31:26.023Z,31.37
2023-12-11T16:33:54.207Z,27.62
2023-12-11T16:36:21.682Z,31.05
2023-12-11T16:42:21.175Z,30.83
2023-12-11T16:44:49.318Z,31.98
2023-12-11T16:47:18.716Z,32.28
2023-12-11T16:49:55.849Z,29.90
2023-12-11T16:52:30.808Z,31.12
2023-12-11T16:54:58.407Z,28.20
2023-12-11T16:57:29.427Z,32.13
2023-12-11T16:59:59.240Z,31.10
2023-12-11T17:02:26.605Z,31.27
2023-12-11T17:04:54.567Z,32.13
2023-12-11T17:07:22.321Z,28.45
2023-12-11T17:09:51.877Z,28.15
2023-12-11T17:12:19.787Z,29.90
2023-12-11T17:14:47.384Z,29.87
2023-12-11T17:17:21.513Z,30.95
2023-12-11T17:23:05.622Z,27.83
2023-12-11T17:25:36.709Z,27.95
2023-12-11T17:28:16.034Z,29.27
2023-12-11T17:30:53.887Z,27.55
2023-12-11T17:33:22.083Z,29.55
2023-12-11T17:35:58.085Z,28.98
2023-12-11T17:38:27.249Z,29.45
2023-12-11T17:40:56.808Z,30.37
2023-12-11T17:43:29.056Z,32.60
2023-12-11T17:45:57.121Z,32.92
2023-12-11T17:48:31.392Z,36.55
2023-12-11T17:51:00.352Z,37.90
2023-12-11T17:53:29.249Z,35.25
2023-12-11T17:55:56.972Z,35.30
2023-12-11T17:58:25.271Z,34.80
2023-12-11T18:00:53.129Z,35.67
2023-12-11T18:03:22.186Z,32.05
2023-12-11T18:05:50.597Z,35.63
2023-12-11T18:08:18.387Z,36.22
2023-12-11T18:10:48.187Z,40.45
2023-12-11T18:13:16.042Z,39.65
2023-12-11T18:15:43.956Z,39.83
2023-12-11T18:18:13.782Z,44.63
2023-12-11T18:20:41.550Z,43.70
2023-12-11T18:23:10.044Z,34.45
2023-12-11T18:25:40.127Z,31.87
2023-12-11T18:28:08.290Z,28.08
2023-12-11T18:30:36.285Z,28.60
2023-12-11T18:33:06.176Z,25.20
2023-12-11T18:35:34.637Z,26.65
2023-12-11T18:38:02.665Z,25.95
2023-12-11T18:40:31.461Z,26.12
2023-12-11T18:43:01.364Z,25.80
2023-12-11T18:45:29.133Z,26.40
2023-12-11T18:48:00.316Z,26.67
2023-12-11T18:52:58.146Z,25.88
2023-12-11T18:55:30.977Z,26.90
2023-12-11T18:57:59.804Z,29.33
2023-12-11T19:00:27.956Z,29.90
2023-12-11T19:02:57.963Z,28.27
2023-12-11T19:05:26.274Z,31.33
2023-12-11T19:07:56.404Z,32.60
2023-12-11T19:10:26.219Z,31.73
2023-12-11T19:13:13.987Z,32.38
2023-12-11T19:15:44.976Z,33.73
2023-12-11T19:18:14.202Z,38.63
2023-12-11T19:20:42.600Z,37.42
2023-12-11T19:23:23.363Z,35.90
2023-12-11T19:28:55.225Z,32.05
2023-12-11T19:31:24.823Z,33.28
2023-12-11T19:33:53.205Z,30.62
2023-12-11T19:36:21.346Z,33.00
2023-12-11T19:38:54.547Z,34.22
2023-12-11T19:41:22.995Z,35.85
2023-12-11T19:44:03.496Z,32.28
2023-12-11T19:46:52.895Z,33.05
2023-12-11T19:49:21.011Z,33.80
2023-12-11T19:51:49.103Z,33.75
2023-12-11T19:54:23.238Z,32.85
2023-12-11T19:56:56.029Z,32.45
2023-12-11T20:02:46.769Z,30.58
2023-12-11T20:05:14.899Z,32.63
2023-12-11T20:07:42.820Z,32.20
2023-12-11T20:10:11.971Z,29.17
2023-12-11T20:12:40.188Z,29.20
2023-12-11T20:15:12.178Z,29.37
2023-12-11T20:17:40.668Z,28.00
2023-12-11T20:20:09.303Z,28.62
2023-12-11T20:22:37.232Z,24.30
2023-12-11T20:25:06.879Z,26.75
2023-12-11T20:27:44.589Z,29.05
2023-12-11T20:30:14.745Z,29.33
2023-12-11T20:32:50.941Z,32.60
2023-12-11T20:45:53.271Z,33.55
2023-12-11T20:48:22.609Z,31.37
2023-12-11T20:53:53.628Z,34.88
2023-12-11T20:59:53.609Z,32.28
2023-12-11T21:02:21.818Z,31.85
2023-12-11T21:04:50.433Z,33.17
2023-12-11T21:07:18.275Z,33.33
2023-12-11T21:09:45.988Z,31.77
2023-12-11T21:12:13.717Z,30.15
2023-12-11T21:14:41.492Z,31.92
2023-12-11T21:17:10.957Z,34.67
2023-12-11T21:19:38.805Z,30.27
2023-12-11T21:22:06.672Z,31.25
2023-12-11T21:24:34.117Z,32.17
2023-12-11T21:27:03.996Z,34.22
2023-12-11T21:29:31.934Z,35.45
2023-12-11T21:32:01.294Z,34.00
2023-12-11T21:34:30.007Z,37.55
2023-12-11T21:36:57.892Z,36.58
2023-12-11T21:39:25.411Z,34.70
2023-12-11T21:41:52.653Z,36.50
2023-12-11T21:44:22.198Z,33.70
2023-12-11T21:46:52.430Z,37.20
2023-12-11T21:49:22.241Z,33.88
2023-12-11T21:51:51.001Z,32.83
2023-12-11T21:54:22.819Z,36.67
2023-12-11T21:56:50.972Z,35.47
2023-12-11T21:59:18.337Z,35.22
2023-12-11T22:01:47.475Z,29.23
2023-12-11T22:04:15.706Z,34.75
2023-12-11T22:06:43.161Z,30.35
2023-12-11T22:09:11.102Z,33.45
2023-12-11T22:11:38.639Z,32.90
2023-12-11T22:14:06.797Z,34.28
2023-12-11T22:16:36.963Z,32.83
2023-12-11T22:19:06.584Z,30.85
2023-12-11T22:21:33.880Z,30.55
2023-12-11T22:24:06.346Z,28.83
2023-12-11T22:26:40.666Z,34.08
2023-12-11T22:29:08.490Z,31.42
2023-12-11T22:31:41.612Z,31.95
2023-12-11T22:34:09.619Z,30.92
2023-12-11T22:36:38.159Z,32.10
2023-12-11T22:39:05.917Z,30.27
2023-12-11T22:41:36.615Z,31.37
2023-12-11T22:44:07.282Z,30.20
2023-12-11T22:46:35.059Z,34.03
2023-12-11T22:49:02.705Z,32.95
2023-12-11T22:51:31.444Z,31.62
2023-12-11T22:53:59.950Z,32.70
2023-12-11T22:56:30.501Z,34.53
2023-12-11T22:58:58.241Z,33.55
2023-12-11T23:01:25.575Z,40.20
2023-12-11T23:03:53.440Z,41.95
2023-12-11T23:06:21.080Z,43.72
2023-12-11T23:08:48.813Z,46.60
2023-12-11T23:11:16.644Z,46.05
2023-12-11T23:13:44.198Z,49.38
2023-12-11T23:16:12.308Z,47.53
2023-12-11T23:18:39.740Z,47.88
2023-12-11T23:21:16.767Z,46.17
2023-12-11T23:23:44.653Z,42.83
2023-12-11T23:26:12.486Z,42.85
2023-12-11T23:28:40.547Z,41.05
2023-12-11T23:31:10.367Z,38.75
2023-12-11T23:33:39.627Z,39.67
2023-12-11T23:36:07.623Z,40.03
2023-12-11T23:38:35.323Z,38.38
2023-12-11T23:41:02.835Z,36.03
2023-12-11T23:43:30.154Z,35.80
2023-12-11T23:45:57.440Z,33.70
2023-12-11T23:48:25.911Z,34.58
2023-12-11T23:50:53.393Z,34.17
2023-12-11T23:53:21.164Z,33.13
2023-12-11T23:55:48.661Z,33.80
2023-12-11T23:58:16.077Z,31.00
